createdAt,value
2024-02-18T00:02:07.767Z,6.60
2024-02-18T00:04:34.594Z,6.95
2024-02-18T00:07:01.621Z,7.35
2024-02-18T00:09:28.476Z,10.48
2024-02-18T00:11:55.967Z,5.80
2024-02-18T00:14:22.887Z,6.75
2024-02-18T00:16:49.777Z,8.95
2024-02-18T00:19:16.611Z,8.30
2024-02-18T00:21:43.267Z,8.65
2024-02-18T00:24:09.875Z,11.05
2024-02-18T00:26:50.065Z,8.25
2024-02-18T00:29:24.639Z,11.20
2024-02-18T00:31:51.250Z,7.00
2024-02-18T00:34:26.785Z,7.10
2024-02-18T00:36:53.810Z,9.00
2024-02-18T00:39:20.863Z,8.15
2024-02-18T00:41:47.615Z,4.82
2024-02-18T00:44:14.246Z,5.95
2024-02-18T00:46:47.786Z,11.80
2024-02-18T00:49:21.406Z,7.30
2024-02-18T00:51:48.073Z,7.22
2024-02-18T00:54:14.836Z,8.23
2024-02-18T00:56:41.432Z,5.97
2024-02-18T00:59:08.004Z,9.45
2024-02-18T01:01:35.260Z,9.85
2024-02-18T01:04:02.292Z,9.07
2024-02-18T01:06:29.048Z,6.88
2024-02-18T01:08:55.656Z,6.05
2024-02-18T01:11:22.275Z,6.97
2024-02-18T01:13:48.938Z,10.48
2024-02-18T01:16:15.474Z,8.40
2024-02-18T01:18:43.867Z,8.57
2024-02-18T01:21:11.816Z,6.55
2024-02-18T01:23:38.433Z,10.20
2024-02-18T01:26:05.446Z,8.75
2024-02-18T01:28:32.056Z,9.27
2024-02-18T01:30:58.802Z,4.07
2024-02-18T01:33:25.610Z,9.93
2024-02-18T01:35:52.196Z,6.22
2024-02-18T01:38:18.713Z,6.13
2024-02-18T01:40:45.405Z,8.48
2024-02-18T01:43:14.372Z,7.70
2024-02-18T01:48:08.107Z,7.03
2024-02-18T01:50:35.134Z,4.55
2024-02-18T01:53:01.935Z,5.57
2024-02-18T01:55:28.593Z,5.60
2024-02-18T01:57:55.204Z,5.25
2024-02-18T02:00:22.768Z,5.97
2024-02-18T02:02:50.582Z,6.60
2024-02-18T02:05:20.352Z,7.43
2024-02-18T02:07:50.775Z,5.05
2024-02-18T02:10:18.719Z,6.35
2024-02-18T02:12:46.056Z,7.72
2024-02-18T02:15:13.191Z,6.40
2024-02-18T02:17:40.296Z,5.28
2024-02-18T02:20:11.758Z,5.43
2024-02-18T02:22:39.193Z,7.10
2024-02-18T02:25:09.966Z,5.18
2024-02-18T02:27:43.668Z,5.25
2024-02-18T02:30:11.002Z,6.55
2024-02-18T02:32:37.759Z,7.00
2024-02-18T02:35:04.846Z,4.00
2024-02-18T02:37:31.965Z,7.07
2024-02-18T02:39:58.822Z,6.65
2024-02-18T02:42:25.805Z,9.15
2024-02-18T02:44:52.378Z,8.50
2024-02-18T02:47:18.993Z,5.72
2024-02-18T02:49:45.636Z,4.35
2024-02-18T02:52:12.875Z,3.55
2024-02-18T02:54:39.517Z,7.40
2024-02-18T02:57:06.192Z,5.72
2024-02-18T02:59:32.707Z,4.15
2024-02-18T03:01:59.307Z,4.07
2024-02-18T03:04:26.041Z,4.20
2024-02-18T03:06:52.744Z,4.57
2024-02-18T03:09:20.042Z,5.75
2024-02-18T03:11:46.988Z,5.60
2024-02-18T03:14:13.566Z,7.63
2024-02-18T03:16:40.229Z,7.13
2024-02-18T03:19:06.892Z,5.50
2024-02-18T03:21:33.710Z,3.75
2024-02-18T03:24:00.418Z,3.47
2024-02-18T03:26:27.327Z,8.25
2024-02-18T03:28:54.141Z,4.38
2024-02-18T03:31:21.263Z,5.15
2024-02-18T03:33:48.411Z,4.32
2024-02-18T03:36:15.253Z,6.18
2024-02-18T03:38:42.022Z,7.38
2024-02-18T03:41:09.985Z,8.23
2024-02-18T03:43:36.597Z,4.22
2024-02-18T03:46:03.636Z,5.53
2024-02-18T03:48:30.529Z,6.22
2024-02-18T03:50:57.417Z,4.95
2024-02-18T03:53:24.068Z,3.78
2024-02-18T03:55:50.905Z,7.50
2024-02-18T03:58:17.681Z,4.90
2024-02-18T04:00:47.673Z,4.82
2024-02-18T04:03:14.921Z,5.35
2024-02-18T04:05:42.506Z,3.22
2024-02-18T04:08:09.129Z,6.28
2024-02-18T04:10:35.671Z,7.78
2024-02-18T04:13:02.399Z,4.70
2024-02-18T04:15:29.038Z,3.42
2024-02-18T04:17:56.106Z,3.70
2024-02-18T04:20:22.973Z,4.85
2024-02-18T04:22:49.468Z,6.55
2024-02-18T04:25:16.163Z,4.07
2024-02-18T04:27:42.855Z,5.28
2024-02-18T04:30:09.865Z,4.70
2024-02-18T04:32:36.650Z,4.55
2024-02-18T04:35:04.656Z,4.47
2024-02-18T04:37:31.590Z,4.63
2024-02-18T04:39:58.910Z,7.38
2024-02-18T04:42:25.741Z,7.05
2024-02-18T04:44:52.572Z,4.65
2024-02-18T04:47:19.463Z,5.57
2024-02-18T04:49:46.322Z,6.45
2024-02-18T04:52:13.242Z,5.70
2024-02-18T04:54:40.675Z,6.28
2024-02-18T04:57:07.723Z,4.07
2024-02-18T04:59:37.247Z,4.95
2024-02-18T05:02:04.287Z,5.15
2024-02-18T05:04:32.852Z,6.88
2024-02-18T05:07:00.573Z,5.50
2024-02-18T05:09:27.518Z,5.10
2024-02-18T05:11:54.138Z,3.80
2024-02-18T05:14:20.881Z,7.97
2024-02-18T05:16:47.618Z,4.80
2024-02-18T05:19:15.488Z,4.55
2024-02-18T05:21:43.533Z,8.02
2024-02-18T05:24:11.302Z,6.75
2024-02-18T05:26:37.892Z,3.63
2024-02-18T05:29:04.657Z,6.07
2024-02-18T05:31:31.436Z,4.53
2024-02-18T05:33:58.380Z,9.82
2024-02-18T05:36:25.234Z,5.47
2024-02-18T05:38:52.010Z,6.47
2024-02-18T05:41:18.999Z,5.15
2024-02-18T05:43:46.092Z,6.93
2024-02-18T05:46:12.936Z,4.78
2024-02-18T05:48:40.499Z,3.28
2024-02-18T05:51:08.236Z,4.43
2024-02-18T05:53:35.289Z,5.15
2024-02-18T05:56:02.566Z,5.50
2024-02-18T05:58:29.222Z,4.72
2024-02-18T06:00:55.852Z,5.88
2024-02-18T06:03:22.600Z,5.60
2024-02-18T06:05:49.386Z,4.32
2024-02-18T06:08:16.011Z,3.38
2024-02-18T06:10:42.836Z,6.25
2024-02-18T06:13:09.590Z,5.70
2024-02-18T06:15:36.191Z,14.05
2024-02-18T06:18:02.905Z,5.93
2024-02-18T06:20:29.774Z,6.38
2024-02-18T06:22:57.088Z,4.70
2024-02-18T06:25:24.186Z,4.88
2024-02-18T06:27:51.627Z,6.75
2024-02-18T06:30:18.286Z,4.43
2024-02-18T06:32:44.868Z,4.43
2024-02-18T06:35:11.507Z,6.30
2024-02-18T06:37:38.168Z,5.80
2024-02-18T06:40:05.581Z,5.78
2024-02-18T06:42:32.204Z,5.70
2024-02-18T06:44:58.830Z,6.18
2024-02-18T06:47:25.508Z,4.75
2024-02-18T06:49:52.267Z,6.93
2024-02-18T06:52:19.675Z,6.22
2024-02-18T06:54:46.522Z,3.83
2024-02-18T06:57:13.297Z,6.47
2024-02-18T06:59:39.843Z,4.50
2024-02-18T07:02:06.506Z,10.13
2024-02-18T07:04:33.178Z,5.25
2024-02-18T07:06:59.812Z,7.45
2024-02-18T07:09:26.475Z,4.45
2024-02-18T07:11:53.072Z,5.10
2024-02-18T07:14:19.782Z,6.68
2024-02-18T07:16:46.349Z,5.80
2024-02-18T07:19:12.978Z,4.93
2024-02-18T07:21:39.593Z,4.25
2024-02-18T07:24:07.910Z,6.70
2024-02-18T07:26:34.527Z,10.40
2024-02-18T07:29:01.601Z,6.70
2024-02-18T07:31:28.457Z,5.45
2024-02-18T07:33:55.256Z,6.13
2024-02-18T07:36:23.073Z,4.90
2024-02-18T07:38:51.753Z,8.43
2024-02-18T07:41:18.332Z,4.47
2024-02-18T07:43:45.797Z,7.60
2024-02-18T07:46:13.781Z,5.13
2024-02-18T07:48:40.473Z,5.75
2024-02-18T07:51:07.046Z,5.18
2024-02-18T07:53:33.571Z,4.53
2024-02-18T07:56:00.357Z,4.25
2024-02-18T07:58:26.921Z,5.50
2024-02-18T08:00:53.525Z,5.20
2024-02-18T08:03:20.251Z,4.50
2024-02-18T08:05:48.427Z,9.75
2024-02-18T08:08:14.974Z,6.53
2024-02-18T08:10:41.512Z,7.55
2024-02-18T08:13:10.404Z,6.35
2024-02-18T08:15:37.262Z,8.85
2024-02-18T08:18:04.137Z,4.38
2024-02-18T08:20:30.700Z,3.58
2024-02-18T08:22:57.281Z,6.00
2024-02-18T08:25:23.801Z,6.15
2024-02-18T08:27:50.327Z,7.40
2024-02-18T08:30:16.903Z,7.32
2024-02-18T08:32:43.430Z,3.42
2024-02-18T08:35:10.163Z,6.13
2024-02-18T08:37:36.985Z,4.82
2024-02-18T08:40:03.964Z,4.13
2024-02-18T08:42:30.576Z,3.97
2024-02-18T08:44:57.280Z,5.85
2024-02-18T08:47:24.093Z,5.00
2024-02-18T08:49:50.777Z,6.22
2024-02-18T08:52:17.346Z,4.45
2024-02-18T08:54:44.715Z,4.10
2024-02-18T08:57:11.429Z,4.38
2024-02-18T08:59:37.901Z,7.32
2024-02-18T09:02:07.083Z,7.80
2024-02-18T09:04:34.210Z,3.50
2024-02-18T09:07:00.947Z,6.47
2024-02-18T09:09:27.915Z,5.75
2024-02-18T09:11:54.463Z,5.50
2024-02-18T09:14:21.044Z,6.07
2024-02-18T09:16:48.374Z,5.75
2024-02-18T09:19:15.027Z,5.45
2024-02-18T09:21:41.764Z,7.35
2024-02-18T09:24:08.541Z,7.60
2024-02-18T09:26:35.015Z,8.63
2024-02-18T09:29:01.491Z,6.85
2024-02-18T09:31:28.073Z,3.78
2024-02-18T09:33:54.877Z,5.63
2024-02-18T09:36:21.486Z,3.33
2024-02-18T09:38:49.978Z,6.72
2024-02-18T09:41:20.408Z,5.05
2024-02-18T09:43:47.144Z,6.28
2024-02-18T09:46:15.606Z,4.28
2024-02-18T09:48:42.889Z,6.28
2024-02-18T09:51:11.909Z,3.58
2024-02-18T09:53:39.307Z,5.70
2024-02-18T09:56:07.536Z,5.00
2024-02-18T09:58:35.084Z,5.38
2024-02-18T10:01:03.312Z,4.00
2024-02-18T10:03:30.317Z,4.75
2024-02-18T10:05:57.069Z,5.13
2024-02-18T10:08:24.161Z,8.80
2024-02-18T10:10:52.215Z,5.55
2024-02-18T10:13:24.233Z,6.28
2024-02-18T10:15:53.255Z,4.97
2024-02-18T10:23:14.421Z,6.00
2024-02-18T10:25:41.030Z,6.22
2024-02-18T10:28:07.658Z,5.13
2024-02-18T10:30:34.350Z,8.40
2024-02-18T10:33:00.858Z,5.90
2024-02-18T10:35:27.701Z,4.97
2024-02-18T10:37:57.407Z,6.32
2024-02-18T10:40:40.686Z,6.57
2024-02-18T10:43:12.258Z,3.35
2024-02-18T10:45:42.065Z,5.75
2024-02-18T10:48:12.209Z,5.57
2024-02-18T10:50:44.942Z,6.40
2024-02-18T10:53:35.483Z,4.22
2024-02-18T10:56:07.016Z,7.03
2024-02-18T10:58:43.950Z,6.80
2024-02-18T11:01:14.411Z,7.60
2024-02-18T11:03:49.549Z,7.65
2024-02-18T11:06:18.126Z,5.72
2024-02-18T11:08:46.869Z,6.97
2024-02-18T11:11:14.313Z,5.43
2024-02-18T11:13:41.856Z,8.85
2024-02-18T11:16:13.515Z,5.95
2024-02-18T11:18:41.958Z,8.80
2024-02-18T11:21:09.524Z,9.00
2024-02-18T11:23:36.303Z,9.05
2024-02-18T11:26:03.449Z,3.78
2024-02-18T11:28:32.799Z,6.28
2024-02-18T11:31:00.435Z,5.53
2024-02-18T11:33:32.399Z,8.65
2024-02-18T11:36:13.931Z,3.80
2024-02-18T11:41:34.724Z,7.07
2024-02-18T11:44:14.225Z,5.47
2024-02-18T11:46:44.464Z,5.93
2024-02-18T11:49:12.567Z,6.38
2024-02-18T11:51:39.561Z,4.57
2024-02-18T11:54:07.075Z,4.07
2024-02-18T11:56:33.718Z,7.80
2024-02-18T11:59:00.541Z,7.55
2024-02-18T12:01:28.755Z,3.60
2024-02-18T12:03:56.674Z,3.40
2024-02-18T12:06:24.646Z,5.55
2024-02-18T12:08:51.395Z,4.97
2024-02-18T12:11:18.139Z,4.63
2024-02-18T12:13:44.958Z,5.05
2024-02-18T12:16:12.429Z,4.45
2024-02-18T12:18:39.334Z,4.93
2024-02-18T12:21:06.061Z,5.28
2024-02-18T12:23:42.143Z,7.05
2024-02-18T12:26:10.657Z,6.20
2024-02-18T12:28:37.263Z,6.75
2024-02-18T12:31:04.184Z,3.35
2024-02-18T12:33:31.938Z,5.82
2024-02-18T12:35:58.817Z,6.13
2024-02-18T12:38:25.447Z,3.83
2024-02-18T12:40:58.240Z,5.32
2024-02-18T12:43:57.888Z,3.10
2024-02-18T12:46:13.611Z,5.22
2024-02-18T12:48:40.503Z,7.03
2024-02-18T12:51:14.998Z,6.97
2024-02-18T12:53:43.142Z,7.07
2024-02-18T12:56:11.653Z,4.32
2024-02-18T12:58:39.770Z,5.78
2024-02-18T13:01:06.874Z,4.60
2024-02-18T13:03:35.360Z,6.13
2024-02-18T13:06:03.885Z,3.90
2024-02-18T13:08:30.714Z,6.18
2024-02-18T13:10:58.332Z,3.53
2024-02-18T13:13:24.932Z,5.32
2024-02-18T13:15:54.697Z,4.47
2024-02-18T13:18:21.386Z,2.72
2024-02-18T13:20:47.985Z,2.40
2024-02-18T13:23:14.500Z,4.43
2024-02-18T13:25:41.191Z,3.42
2024-02-18T13:28:07.890Z,4.15
2024-02-18T13:30:34.553Z,2.65
2024-02-18T13:33:01.228Z,3.85
2024-02-18T13:35:27.886Z,3.58
2024-02-18T13:37:54.637Z,2.53
2024-02-18T13:40:21.195Z,6.50
2024-02-18T13:42:47.875Z,3.60
2024-02-18T13:45:14.492Z,2.88
2024-02-18T13:47:41.083Z,4.00
2024-02-18T13:50:09.011Z,3.17
2024-02-18T13:52:35.693Z,1.90
2024-02-18T13:55:02.481Z,1.80
2024-02-18T13:57:29.131Z,2.33
2024-02-18T13:59:57.615Z,3.08
2024-02-18T14:02:24.545Z,1.90
2024-02-18T14:04:51.924Z,3.85
2024-02-18T14:07:21.304Z,3.45
2024-02-18T14:09:50.217Z,2.45
2024-02-18T14:12:17.381Z,2.95
2024-02-18T14:14:49.319Z,3.25
2024-02-18T14:17:16.290Z,2.00
2024-02-18T14:19:43.209Z,2.40
2024-02-18T14:22:09.994Z,2.33
2024-02-18T14:24:36.738Z,3.50
2024-02-18T14:27:04.414Z,2.05
2024-02-18T14:29:31.202Z,2.50
2024-02-18T14:31:57.708Z,3.75
2024-02-18T14:34:24.433Z,1.95
2024-02-18T14:36:51.107Z,3.42
2024-02-18T14:39:17.710Z,3.15
2024-02-18T14:41:44.335Z,4.13
2024-02-18T14:44:10.830Z,2.33
2024-02-18T14:46:37.341Z,2.83
2024-02-18T14:49:04.198Z,2.65
2024-02-18T14:51:31.026Z,2.00
2024-02-18T14:53:57.964Z,2.20
2024-02-18T14:56:24.772Z,2.40
2024-02-18T14:58:51.561Z,2.80
2024-02-18T15:01:20.351Z,2.65
2024-02-18T15:03:47.403Z,1.90
2024-02-18T15:06:14.205Z,3.00
2024-02-18T15:08:41.787Z,2.67
2024-02-18T15:11:08.296Z,2.95
2024-02-18T15:13:34.934Z,3.10
2024-02-18T15:16:01.504Z,1.70
2024-02-18T15:18:28.122Z,1.30
2024-02-18T15:20:54.715Z,3.20
2024-02-18T15:23:21.489Z,1.67
2024-02-18T15:25:52.609Z,1.40
2024-02-18T15:28:19.744Z,1.95
2024-02-18T15:30:46.840Z,1.40
2024-02-18T15:33:13.551Z,1.50
2024-02-18T15:35:41.545Z,1.30
2024-02-18T15:38:08.444Z,1.00
2024-02-18T15:40:35.148Z,1.10
2024-02-18T15:43:01.866Z,1.70
2024-02-18T15:45:28.477Z,2.40
2024-02-18T15:47:55.763Z,2.45
2024-02-18T15:50:22.650Z,1.73
2024-02-18T15:52:49.144Z,0.88
2024-02-18T15:55:15.873Z,0.95
2024-02-18T15:57:42.531Z,1.88
2024-02-18T16:00:09.818Z,2.63
2024-02-18T16:02:36.278Z,2.22
2024-02-18T16:05:03.126Z,1.30
2024-02-18T16:07:30.795Z,2.45
2024-02-18T16:09:57.974Z,3.05
2024-02-18T16:12:24.585Z,1.33
2024-02-18T16:14:51.092Z,2.58
2024-02-18T16:17:18.004Z,1.92
2024-02-18T16:19:44.779Z,3.17
2024-02-18T16:22:12.817Z,2.30
2024-02-18T16:24:40.493Z,3.80
2024-02-18T16:27:07.302Z,3.00
2024-02-18T16:29:33.916Z,2.75
2024-02-18T16:32:01.148Z,2.60
2024-02-18T16:34:29.441Z,3.10
2024-02-18T16:36:56.156Z,3.63
2024-02-18T16:39:22.834Z,2.03
2024-02-18T16:41:49.437Z,1.65
2024-02-18T16:44:16.046Z,2.45
2024-02-18T16:46:42.675Z,2.45
2024-02-18T16:49:10.034Z,2.80
2024-02-18T16:51:45.007Z,3.42
2024-02-18T16:54:12.107Z,4.22
2024-02-18T16:56:38.639Z,2.22
2024-02-18T16:59:05.185Z,3.08
2024-02-18T17:01:32.243Z,2.58
2024-02-18T17:04:02.497Z,2.65
2024-02-18T17:06:30.775Z,2.05
2024-02-18T17:08:57.604Z,3.72
2024-02-18T17:11:24.269Z,4.13
2024-02-18T17:13:51.029Z,3.63
2024-02-18T17:16:17.755Z,4.93
2024-02-18T17:18:44.621Z,4.82
2024-02-18T17:21:11.487Z,5.57
2024-02-18T17:23:40.023Z,5.75
2024-02-18T17:26:06.624Z,8.13
2024-02-18T17:28:33.142Z,4.97
2024-02-18T17:30:59.898Z,6.22
2024-02-18T17:33:28.578Z,6.20
2024-02-18T17:35:55.260Z,5.45
2024-02-18T17:38:21.782Z,8.27
2024-02-18T17:40:48.312Z,3.40
2024-02-18T17:43:15.096Z,3.58
2024-02-18T17:45:42.388Z,5.30
2024-02-18T17:48:09.606Z,3.95
2024-02-18T17:50:38.631Z,3.35
2024-02-18T17:53:07.375Z,8.05
2024-02-18T17:55:34.150Z,4.78
2024-02-18T17:58:00.983Z,5.28
2024-02-18T18:00:30.470Z,3.13
2024-02-18T18:02:57.937Z,3.97
2024-02-18T18:05:24.537Z,5.20
2024-02-18T18:07:55.676Z,5.57
2024-02-18T18:10:23.532Z,7.88
2024-02-18T18:12:53.647Z,5.32
2024-02-18T18:15:23.004Z,5.70
2024-02-18T18:17:50.022Z,4.95
2024-02-18T18:20:17.029Z,7.03
2024-02-18T18:22:46.362Z,5.70
2024-02-18T18:25:13.941Z,6.28
2024-02-18T18:27:41.398Z,8.23
2024-02-18T18:30:08.795Z,8.18
2024-02-18T18:32:35.749Z,6.47
2024-02-18T18:35:03.104Z,3.78
2024-02-18T18:37:29.804Z,8.43
2024-02-18T18:39:56.425Z,5.50
2024-02-18T18:42:23.416Z,7.45
2024-02-18T18:44:50.356Z,8.63
2024-02-18T18:47:18.802Z,6.25
2024-02-18T18:49:52.719Z,4.85
2024-02-18T18:52:19.641Z,4.57
2024-02-18T18:54:46.377Z,7.22
2024-02-18T18:57:15.327Z,9.10
2024-02-18T18:59:42.017Z,7.07
2024-02-18T19:02:08.750Z,4.80
2024-02-18T19:04:35.427Z,9.30
2024-02-18T19:07:02.339Z,5.43
2024-02-18T19:09:33.628Z,6.85
2024-02-18T19:12:01.072Z,7.03
2024-02-18T19:14:28.036Z,8.55
2024-02-18T19:16:54.578Z,11.43
2024-02-18T19:19:21.580Z,11.20
2024-02-18T19:21:48.394Z,9.05
2024-02-18T19:24:15.020Z,11.65
2024-02-18T19:26:43.838Z,12.30
2024-02-18T19:29:11.106Z,6.55
2024-02-18T19:31:38.131Z,9.48
2024-02-18T19:34:08.052Z,11.48
2024-02-18T19:36:39.234Z,13.70
2024-02-18T19:39:05.918Z,8.38
2024-02-18T19:41:40.093Z,9.70
2024-02-18T19:44:06.805Z,9.05
2024-02-18T19:46:49.441Z,10.70
2024-02-18T19:49:19.249Z,10.63
2024-02-18T19:51:47.127Z,7.90
2024-02-18T19:54:15.045Z,11.07
2024-02-18T19:56:42.556Z,8.57
2024-02-18T19:59:09.919Z,9.20
2024-02-18T20:04:03.627Z,10.63
2024-02-18T20:06:30.444Z,9.32
2024-02-18T20:08:57.032Z,9.82
2024-02-18T20:11:25.875Z,9.48
2024-02-18T20:13:54.100Z,11.48
2024-02-18T20:16:20.754Z,10.15
2024-02-18T20:18:47.504Z,8.95
2024-02-18T20:21:15.023Z,10.43
2024-02-18T20:23:42.263Z,7.57
2024-02-18T20:26:18.004Z,11.20
2024-02-18T20:28:44.987Z,11.43
2024-02-18T20:31:22.048Z,6.65
2024-02-18T20:33:49.589Z,9.82
2024-02-18T20:36:18.228Z,8.65
2024-02-18T20:38:45.724Z,3.67
2024-02-18T20:41:13.060Z,5.53
2024-02-18T20:43:39.611Z,7.05
2024-02-18T20:46:06.648Z,4.93
2024-02-18T20:48:33.337Z,5.95
2024-02-18T20:51:00.682Z,3.42
2024-02-18T20:53:27.214Z,2.72
2024-02-18T20:55:53.766Z,4.95
2024-02-18T20:58:22.957Z,4.82
2024-02-18T21:00:50.114Z,3.70
2024-02-18T21:03:20.516Z,2.28
2024-02-18T21:05:47.645Z,5.15
2024-02-18T21:08:14.740Z,4.10
2024-02-18T21:10:41.467Z,3.90
2024-02-18T21:13:11.754Z,5.57
2024-02-18T21:15:38.702Z,7.10
2024-02-18T21:18:07.274Z,4.20
2024-02-18T21:20:33.858Z,7.72
2024-02-18T21:23:02.084Z,6.78
2024-02-18T21:25:29.555Z,9.23
2024-02-18T21:27:56.661Z,7.93
2024-02-18T21:30:26.761Z,6.35
2024-02-18T21:32:58.214Z,18.38
2024-02-18T21:35:24.936Z,7.63
2024-02-18T21:37:51.766Z,6.82
2024-02-18T21:40:19.261Z,7.53
2024-02-18T21:42:45.882Z,10.05
2024-02-18T21:45:12.523Z,11.73
2024-02-18T21:47:39.231Z,18.05
2024-02-18T21:50:06.145Z,11.75
2024-02-18T21:52:32.839Z,12.98
2024-02-18T21:54:59.534Z,19.33
2024-02-18T21:57:26.146Z,8.63
2024-02-18T21:59:52.698Z,13.75
2024-02-18T22:02:19.341Z,14.68
2024-02-18T22:04:46.031Z,11.68
2024-02-18T22:07:17.567Z,21.98
2024-02-18T22:09:46.050Z,17.65
2024-02-18T22:12:13.341Z,11.75
2024-02-18T22:14:39.967Z,14.02
2024-02-18T22:17:07.516Z,17.17
2024-02-18T22:19:34.847Z,19.33
2024-02-18T22:22:02.146Z,7.10
2024-02-18T22:24:29.935Z,12.40
2024-02-18T22:26:56.486Z,10.95
2024-02-18T22:29:23.137Z,13.30
2024-02-18T22:31:49.698Z,20.02
2024-02-18T22:34:19.589Z,13.10
2024-02-18T22:36:46.449Z,15.48
2024-02-18T22:39:13.544Z,8.68
2024-02-18T22:41:42.749Z,13.60
2024-02-18T22:44:09.283Z,16.77
2024-02-18T22:46:35.833Z,15.55
2024-02-18T22:49:02.976Z,18.80
2024-02-18T22:51:29.711Z,9.15
2024-02-18T22:53:56.379Z,15.93
2024-02-18T22:56:22.868Z,10.10
2024-02-18T22:58:50.364Z,12.13
2024-02-18T23:01:17.060Z,13.93
2024-02-18T23:03:43.798Z,13.23
2024-02-18T23:06:10.467Z,15.13
2024-02-18T23:08:40.701Z,16.70
2024-02-18T23:11:09.037Z,13.00
2024-02-18T23:13:35.942Z,15.63
2024-02-18T23:16:02.837Z,16.08
2024-02-18T23:18:29.599Z,16.52
2024-02-18T23:20:56.218Z,15.32
2024-02-18T23:23:22.861Z,11.07
2024-02-18T23:25:49.440Z,13.38
2024-02-18T23:28:16.160Z,12.35
2024-02-18T23:30:42.846Z,8.00
2024-02-18T23:33:09.476Z,19.60
2024-02-18T23:35:36.077Z,12.05
2024-02-18T23:38:05.289Z,13.13
2024-02-18T23:40:33.128Z,12.05
2024-02-18T23:42:59.955Z,10.20
2024-02-18T23:45:26.533Z,13.50
2024-02-18T23:47:53.273Z,15.57
2024-02-18T23:50:19.922Z,9.10
2024-02-18T23:52:46.460Z,13.27
2024-02-18T23:55:13.345Z,13.70
2024-02-18T23:57:40.158Z,8.73
